Time;durP1;ratioP1;P1;durP2;ratioP2;P2;SDS_P1;SDS_P2;PMS_P1;PMS_P2;Temp;Humidity;BMP_temperature;BMP_pressure;BME280_temperature;BME280_humidity;BME280_pressure;Samples;Min_cycle;Max_cycle;Signal;HPM_P1;HPM_P2
2022/01/31 00:00:02;;;;;;;23.42;5.38;;;4.40;99.90;;;;;;6334957;22;20019;-73
2022/01/31 00:02:28;;;;;;;31.55;6.22;;;4.50;99.90;;;;;;6333855;22;20018;-72
2022/01/31 00:04:54;;;;;;;25.73;5.38;;;4.40;99.90;;;;;;6335054;22;20039;-72
2022/01/31 00:07:19;;;;;;;21.40;5.32;;;4.40;99.90;;;;;;6334553;22;20074;-73
2022/01/31 00:09:45;;;;;;;21.27;5.22;;;4.50;99.90;;;;;;6334258;22;20350;-73
2022/01/31 00:12:18;;;;;;;24.52;5.70;;;4.50;99.90;;;;;;6334899;22;20342;-73
2022/01/31 00:14:47;;;;;;;25.38;6.38;;;4.40;99.90;;;;;;6335082;22;20086;-73
2022/01/31 00:17:14;;;;;;;27.52;6.80;;;4.50;99.90;;;;;;6335196;22;20010;-73
2022/01/31 00:19:42;;;;;;;29.45;6.28;;;4.40;99.90;;;;;;6334000;22;20055;-72
2022/01/31 00:22:10;;;;;;;28.17;5.90;;;4.40;99.90;;;;;;6334572;22;20015;-73
2022/01/31 00:24:37;;;;;;;24.25;6.18;;;4.50;99.90;;;;;;6334428;22;20023;-73
2022/01/31 00:27:04;;;;;;;21.42;6.07;;;4.40;99.90;;;;;;6335105;22;20017;-71
2022/01/31 00:29:30;;;;;;;30.73;7.28;;;4.40;99.90;;;;;;6336102;22;20093;-73
2022/01/31 00:31:56;;;;;;;33.25;6.70;;;4.50;99.90;;;;;;6334983;22;20407;-73
2022/01/31 00:34:22;;;;;;;26.70;7.15;;;4.50;99.90;;;;;;6308433;22;20469;-73
2022/01/31 00:36:48;;;;;;;27.80;6.85;;;4.50;99.90;;;;;;6333906;22;20312;-73
2022/01/31 00:39:13;;;;;;;23.20;5.72;;;4.50;99.90;;;;;;6334702;22;20090;-73
2022/01/31 00:41:39;;;;;;;26.42;7.25;;;4.50;99.90;;;;;;6334424;22;20490;-73
2022/01/31 00:46:50;;;;;;;22.80;7.03;;;4.50;99.90;;;;;;6334523;22;20033;-72
2022/01/31 00:51:59;;;;;;;22.77;7.97;;;4.50;99.90;;;;;;6312977;22;20011;-73
2022/01/31 00:54:25;;;;;;;24.17;6.63;;;4.50;99.90;;;;;;6309732;22;20042;-73
2022/01/31 00:56:51;;;;;;;24.20;7.30;;;4.50;99.90;;;;;;6308377;22;20026;-73
2022/01/31 00:59:17;;;;;;;25.70;7.38;;;4.50;99.90;;;;;;6334637;22;20019;-73
2022/01/31 01:01:44;;;;;;;23.70;7.20;;;4.50;99.90;;;;;;6334796;22;20042;-73
2022/01/31 01:04:09;;;;;;;21.58;7.28;;;4.60;99.90;;;;;;6334578;22;20443;-73
2022/01/31 01:06:35;;;;;;;26.13;7.53;;;4.60;99.90;;;;;;6334218;22;20015;-73
2022/01/31 01:09:02;;;;;;;25.65;7.43;;;4.60;99.90;;;;;;6333208;22;20512;-74
2022/01/31 01:11:27;;;;;;;20.52;7.57;;;4.70;99.90;;;;;;6333796;22;20019;-73
2022/01/31 01:13:53;;;;;;;24.50;9.25;;;4.70;99.90;;;;;;6335462;22;20500;-74
2022/01/31 01:16:18;;;;;;;19.52;7.93;;;4.70;99.90;;;;;;6336433;22;20022;-74
2022/01/31 01:18:44;;;;;;;24.60;8.63;;;4.70;99.90;;;;;;6336197;22;20438;-74
2022/01/31 01:21:10;;;;;;;24.15;9.05;;;4.70;99.90;;;;;;6336066;22;20451;-74
2022/01/31 01:23:35;;;;;;;22.33;8.60;;;4.70;99.90;;;;;;6334920;22;20479;-74
2022/01/31 01:26:01;;;;;;;26.65;8.68;;;4.70;99.90;;;;;;6337700;22;20015;-73
2022/01/31 01:28:27;;;;;;;24.65;9.48;;;4.70;99.90;;;;;;6286115;22;20427;-73
2022/01/31 01:30:55;;;;;;;25.27;9.57;;;4.70;99.90;;;;;;6338107;22;20015;-73
2022/01/31 01:33:22;;;;;;;25.27;10.63;;;4.70;99.90;;;;;;6340215;22;20019;-73
2022/01/31 01:35:51;;;;;;;28.20;10.05;;;4.70;99.90;;;;;;6340146;22;20049;-74
2022/01/31 01:38:19;;;;;;;30.08;11.00;;;4.60;99.90;;;;;;6340964;22;20060;-74
2022/01/31 01:40:47;;;;;;;31.92;11.50;;;4.60;99.90;;;;;;6339953;22;20018;-74
2022/01/31 01:43:15;;;;;;;26.02;10.70;;;4.60;99.90;;;;;;6341107;22;20094;-73
2022/01/31 01:45:42;;;;;;;24.13;11.00;;;4.60;99.90;;;;;;6339897;22;20027;-73
2022/01/31 01:48:09;;;;;;;27.83;12.20;;;4.50;99.90;;;;;;6313642;22;20011;-73
2022/01/31 01:50:37;;;;;;;30.50;12.43;;;4.50;99.90;;;;;;6313679;22;20007;-74
2022/01/31 01:53:04;;;;;;;22.65;12.10;;;4.60;99.90;;;;;;6342234;22;20330;-75
2022/01/31 01:55:30;;;;;;;27.50;12.57;;;4.40;99.90;;;;;;6317820;22;20015;-75
2022/01/31 01:57:56;;;;;;;27.92;12.77;;;4.30;99.90;;;;;;6346675;22;20011;-74
2022/01/31 02:00:27;;;;;;;25.45;13.90;;;4.20;99.90;;;;;;6343056;22;20139;-74
2022/01/31 02:02:55;;;;;;;27.50;13.60;;;4.20;99.90;;;;;;6343333;22;20023;-74
2022/01/31 02:05:21;;;;;;;27.55;14.35;;;4.10;99.90;;;;;;6316010;22;20064;-74
2022/01/31 02:07:48;;;;;;;39.85;15.80;;;4.10;99.90;;;;;;6341893;22;20010;-74
2022/01/31 02:10:16;;;;;;;31.13;15.45;;;4.00;99.90;;;;;;6341798;22;20096;-74
2022/01/31 02:12:46;;;;;;;29.02;15.45;;;4.00;99.90;;;;;;6342137;22;20019;-74
2022/01/31 02:15:14;;;;;;;26.58;15.77;;;4.00;99.90;;;;;;6313974;22;20010;-74
2022/01/31 02:17:40;;;;;;;26.60;14.57;;;4.00;99.90;;;;;;6340263;22;20038;-73
2022/01/31 02:20:09;;;;;;;27.88;14.23;;;4.10;99.90;;;;;;6340953;22;20061;-74
2022/01/31 02:22:38;;;;;;;30.33;15.80;;;4.10;99.90;;;;;;6312098;22;20015;-73
2022/01/31 02:25:05;;;;;;;25.38;13.65;;;4.10;99.90;;;;;;6309353;22;20007;-73
2022/01/31 02:27:33;;;;;;;24.85;15.30;;;4.10;99.90;;;;;;6309446;22;20081;-73
2022/01/31 02:30:00;;;;;;;23.70;13.82;;;4.00;99.90;;;;;;6308808;22;20010;-74
2022/01/31 02:32:25;;;;;;;25.33;12.93;;;4.00;99.90;;;;;;6310044;22;20015;-73
2022/01/31 02:34:52;;;;;;;25.63;13.77;;;4.00;99.90;;;;;;6309269;22;20007;-73
2022/01/31 02:37:19;;;;;;;27.10;14.20;;;4.10;99.90;;;;;;6309767;22;20015;-74
2022/01/31 02:39:44;;;;;;;21.83;13.27;;;4.10;99.90;;;;;;6336724;22;20011;-74
2022/01/31 02:42:10;;;;;;;24.25;13.10;;;4.10;99.90;;;;;;6309457;22;20519;-74
2022/01/31 02:44:45;;;;;;;22.75;12.63;;;4.00;99.90;;;;;;6308447;22;20463;-75
2022/01/31 02:47:15;;;;;;;19.45;10.95;;;4.00;99.90;;;;;;6309434;22;20010;-75
2022/01/31 02:49:49;;;;;;;16.75;9.50;;;3.90;99.90;;;;;;6309029;22;20011;-75
2022/01/31 02:52:16;;;;;;;15.00;9.48;;;4.10;99.90;;;;;;6308727;22;20039;-75
2022/01/31 02:54:43;;;;;;;13.82;9.48;;;4.00;99.90;;;;;;6308977;22;20072;-74
2022/01/31 02:57:09;;;;;;;17.92;9.10;;;4.00;99.90;;;;;;6309712;22;20021;-74
2022/01/31 02:59:35;;;;;;;14.85;8.63;;;4.00;99.90;;;;;;6261860;22;20410;-74
2022/01/31 03:02:01;;;;;;;13.82;8.95;;;4.10;99.90;;;;;;6262541;22;20022;-74
2022/01/31 03:04:26;;;;;;;14.40;9.98;;;4.10;99.90;;;;;;6287352;22;20070;-74
2022/01/31 03:06:53;;;;;;;14.25;8.88;;;4.10;99.90;;;;;;6313612;22;20025;-74
2022/01/31 03:09:19;;;;;;;12.43;8.63;;;4.10;99.90;;;;;;6340385;22;20030;-75
2022/01/31 03:11:45;;;;;;;13.30;9.20;;;4.10;99.90;;;;;;6341060;22;20007;-74
2022/01/31 03:14:11;;;;;;;15.82;10.20;;;4.10;99.90;;;;;;6313016;22;20014;-75
2022/01/31 03:16:40;;;;;;;13.60;9.77;;;4.10;99.90;;;;;;6313083;22;20013;-74
2022/01/31 03:19:08;;;;;;;16.35;9.80;;;4.20;99.90;;;;;;6339905;22;20339;-73
2022/01/31 03:21:34;;;;;;;11.65;8.45;;;4.20;99.90;;;;;;6340713;22;20010;-74
2022/01/31 03:23:59;;;;;;;18.75;10.45;;;4.30;99.90;;;;;;6340042;22;20022;-73
2022/01/31 03:26:25;;;;;;;18.80;9.85;;;4.30;99.90;;;;;;6312462;22;20006;-74
2022/01/31 03:28:53;;;;;;;19.00;10.85;;;4.30;99.90;;;;;;6311370;22;20080;-74
2022/01/31 03:31:20;;;;;;;19.00;11.00;;;4.20;99.90;;;;;;6340165;22;20668;-74
2022/01/31 03:33:47;;;;;;;18.42;12.82;;;4.20;99.90;;;;;;6339844;22;20057;-74
2022/01/31 03:36:13;;;;;;;25.73;13.60;;;4.20;99.90;;;;;;6339451;22;20026;-73
2022/01/31 03:38:40;;;;;;;21.65;13.10;;;4.30;99.90;;;;;;6311842;22;20021;-74
2022/01/31 03:41:10;;;;;;;25.77;12.13;;;4.50;99.90;;;;;;6340134;22;20007;-73
2022/01/31 03:43:37;;;;;;;26.58;12.70;;;4.60;99.90;;;;;;6339620;22;20015;-74
2022/01/31 03:46:03;;;;;;;29.58;11.57;;;4.70;99.90;;;;;;6339649;22;20067;-74
2022/01/31 03:48:29;;;;;;;31.33;11.88;;;4.90;99.90;;;;;;6340056;22;20010;-73
2022/01/31 03:50:56;;;;;;;20.95;10.45;;;5.00;99.90;;;;;;6287058;22;20037;-74
2022/01/31 03:53:21;;;;;;;21.80;9.55;;;5.10;99.90;;;;;;6312561;22;20014;-74
2022/01/31 03:55:47;;;;;;;30.73;9.75;;;5.20;99.90;;;;;;6336797;22;20046;-74
2022/01/31 03:58:13;;;;;;;27.90;8.23;;;5.20;99.90;;;;;;6309113;22;20019;-74
2022/01/31 04:00:38;;;;;;;22.83;8.15;;;5.30;99.90;;;;;;6308475;22;20821;-74
2022/01/31 04:03:04;;;;;;;27.02;7.95;;;5.30;99.90;;;;;;6308522;22;20023;-74
2022/01/31 04:05:31;;;;;;;26.52;7.40;;;5.40;99.90;;;;;;6308669;22;20097;-74
2022/01/31 04:07:57;;;;;;;25.10;6.63;;;5.40;99.90;;;;;;6308597;22;20022;-74
2022/01/31 04:10:23;;;;;;;27.85;5.70;;;5.40;99.90;;;;;;6307943;22;20082;-74
2022/01/31 04:12:49;;;;;;;24.92;5.07;;;5.40;99.90;;;;;;6308741;22;20010;-74
2022/01/31 04:15:15;;;;;;;30.15;5.10;;;5.50;99.90;;;;;;6308869;22;20010;-74
2022/01/31 04:17:40;;;;;;;32.00;6.55;;;5.50;99.90;;;;;;6307919;22;20026;-74
2022/01/31 04:20:08;;;;;;;27.25;4.68;;;5.60;99.90;;;;;;6308700;22;20014;-74
2022/01/31 04:22:37;;;;;;;19.50;4.35;;;5.60;99.90;;;;;;6308536;22;20014;-74
2022/01/31 04:25:06;;;;;;;30.63;4.60;;;5.60;99.90;;;;;;6309107;22;20018;-74
2022/01/31 04:27:44;;;;;;;21.48;4.25;;;5.60;99.90;;;;;;6282881;22;20014;-74
2022/01/31 04:30:12;;;;;;;24.88;4.28;;;5.60;99.90;;;;;;6308784;22;20014;-74
2022/01/31 04:32:38;;;;;;;26.65;4.82;;;5.70;99.90;;;;;;6308400;22;20018;-74
2022/01/31 04:35:04;;;;;;;26.13;5.10;;;5.70;99.90;;;;;;6308611;22;20015;-74
2022/01/31 04:37:30;;;;;;;28.05;4.10;;;5.80;99.90;;;;;;6308367;22;20010;-74
2022/01/31 04:39:55;;;;;;;24.52;4.35;;;5.80;99.90;;;;;;6308105;22;20057;-72
2022/01/31 04:42:21;;;;;;;21.75;3.80;;;5.80;99.90;;;;;;6308876;22;20015;-72
2022/01/31 04:44:48;;;;;;;22.98;3.88;;;5.90;99.90;;;;;;6309936;22;20062;-72
2022/01/31 04:47:14;;;;;;;28.38;3.80;;;5.80;99.90;;;;;;6334669;22;20006;-72
2022/01/31 04:49:39;;;;;;;23.90;3.25;;;5.70;99.90;;;;;;6336199;22;20091;-72
2022/01/31 04:52:05;;;;;;;24.67;4.00;;;5.70;99.90;;;;;;6336704;22;20383;-72
2022/01/31 04:54:31;;;;;;;23.27;3.97;;;5.60;99.90;;;;;;6310773;22;20011;-72
2022/01/31 04:56:56;;;;;;;28.40;5.38;;;5.60;99.90;;;;;;6285054;22;20022;-72
2022/01/31 04:59:22;;;;;;;25.52;4.15;;;5.70;99.90;;;;;;6336336;22;20015;-72
2022/01/31 05:01:49;;;;;;;23.55;4.20;;;5.70;99.90;;;;;;6335587;22;20011;-72
2022/01/31 05:04:15;;;;;;;26.60;4.30;;;5.60;99.90;;;;;;6336685;22;20015;-71
2022/01/31 05:06:43;;;;;;;29.23;3.55;;;5.70;99.90;;;;;;6336118;22;20007;-71
2022/01/31 05:09:10;;;;;;;22.17;3.70;;;5.70;99.90;;;;;;6335974;22;20007;-71
2022/01/31 05:11:36;;;;;;;31.33;4.13;;;5.70;99.90;;;;;;6336168;22;20338;-71
2022/01/31 05:14:02;;;;;;;24.25;4.28;;;5.70;99.90;;;;;;6337135;22;20056;-71
2022/01/31 05:16:28;;;;;;;26.48;4.05;;;5.60;99.90;;;;;;6335868;22;20019;-71
2022/01/31 05:18:53;;;;;;;24.38;3.97;;;5.60;99.90;;;;;;6337901;22;20029;-71
2022/01/31 05:21:19;;;;;;;23.45;4.18;;;5.60;99.90;;;;;;6336586;22;20010;-71
2022/01/31 05:23:47;;;;;;;32.83;5.30;;;5.60;99.90;;;;;;6335958;22;20107;-71
2022/01/31 05:26:13;;;;;;;27.17;4.20;;;5.60;99.90;;;;;;6335649;22;20006;-71
2022/01/31 05:28:38;;;;;;;27.77;4.20;;;5.60;99.90;;;;;;6335154;22;20347;-71
2022/01/31 05:31:06;;;;;;;21.98;4.10;;;5.60;99.90;;;;;;6336533;22;20064;-71
2022/01/31 05:33:32;;;;;;;14.57;2.58;;;5.70;99.90;;;;;;6335752;22;20068;-71
2022/01/31 05:35:58;;;;;;;9.55;1.77;;;5.70;99.90;;;;;;6310478;22;20011;-71
2022/01/31 05:38:24;;;;;;;6.07;1.15;;;5.60;99.90;;;;;;6338061;22;20011;-72
2022/01/31 05:40:50;;;;;;;7.95;1.20;;;5.50;99.90;;;;;;6335388;22;20022;-72
2022/01/31 05:43:16;;;;;;;3.25;1.20;;;5.30;99.90;;;;;;6335879;22;20085;-72
2022/01/31 05:45:42;;;;;;;4.82;0.90;;;5.20;99.90;;;;;;6335812;22;20438;-71
2022/01/31 05:48:08;;;;;;;4.45;1.08;;;5.00;99.90;;;;;;6335877;22;20019;-71
2022/01/31 05:50:34;;;;;;;7.30;1.20;;;4.90;99.90;;;;;;6335689;22;20017;-71
2022/01/31 05:53:00;;;;;;;8.98;1.23;;;4.80;99.90;;;;;;6332267;22;20050;-71
2022/01/31 05:55:26;;;;;;;7.82;1.60;;;4.80;99.90;;;;;;6309740;22;20015;-71
2022/01/31 05:57:51;;;;;;;12.27;1.67;;;4.80;99.90;;;;;;6335774;22;20065;-71
2022/01/31 06:00:17;;;;;;;12.60;1.88;;;4.80;99.90;;;;;;6335983;22;20052;-71
2022/01/31 06:02:43;;;;;;;10.48;2.00;;;4.90;99.90;;;;;;6335296;22;20041;-72
2022/01/31 06:05:09;;;;;;;10.57;2.00;;;4.90;99.90;;;;;;6309621;22;20011;-71
2022/01/31 06:07:36;;;;;;;10.25;1.85;;;4.80;99.90;;;;;;6283703;22;20003;-71
2022/01/31 06:10:02;;;;;;;10.35;1.55;;;4.80;99.90;;;;;;6335320;22;20011;-71
2022/01/31 06:12:28;;;;;;;12.75;1.42;;;4.80;99.90;;;;;;6335854;22;20018;-71
2022/01/31 06:14:54;;;;;;;13.60;1.63;;;4.80;99.90;;;;;;6335260;22;20010;-71
2022/01/31 06:17:19;;;;;;;16.40;1.90;;;4.80;99.90;;;;;;6330350;22;20015;-71
2022/01/31 06:19:45;;;;;;;12.32;2.13;;;4.80;99.90;;;;;;6333228;22;20046;-72
2022/01/31 06:22:11;;;;;;;18.08;2.13;;;4.80;99.90;;;;;;6332738;22;20007;-72
2022/01/31 06:24:36;;;;;;;13.15;2.25;;;4.80;99.90;;;;;;6331719;22;20030;-72
2022/01/31 06:27:04;;;;;;;17.90;2.20;;;4.90;99.90;;;;;;6333989;22;20010;-71
2022/01/31 06:29:29;;;;;;;13.45;2.25;;;4.90;99.90;;;;;;6334731;22;20085;-72
2022/01/31 06:31:55;;;;;;;20.08;2.42;;;4.90;99.90;;;;;;6335179;22;20067;-72
2022/01/31 06:34:21;;;;;;;18.70;3.15;;;5.00;99.90;;;;;;6334212;22;20015;-72
2022/01/31 06:36:47;;;;;;;18.02;2.50;;;5.00;99.90;;;;;;6333491;22;20026;-72
2022/01/31 06:39:13;;;;;;;18.38;2.55;;;5.00;99.90;;;;;;6332987;22;20019;-72
2022/01/31 06:41:38;;;;;;;20.52;2.95;;;5.00;99.90;;;;;;6333782;22;20014;-72
2022/01/31 06:44:04;;;;;;;21.73;2.70;;;5.00;99.90;;;;;;6334188;22;20051;-72
2022/01/31 06:46:30;;;;;;;26.25;3.00;;;5.10;99.90;;;;;;6330756;22;20473;-72
2022/01/31 06:48:56;;;;;;;21.75;3.00;;;5.10;99.90;;;;;;6330046;22;20018;-73
2022/01/31 06:51:22;;;;;;;22.90;3.03;;;5.10;99.90;;;;;;6333054;22;20108;-71
2022/01/31 06:53:48;;;;;;;25.85;3.35;;;5.10;99.90;;;;;;6305940;22;20038;-72
2022/01/31 06:56:16;;;;;;;16.33;3.10;;;5.10;99.90;;;;;;6330820;22;20021;-70
2022/01/31 06:58:42;;;;;;;20.63;2.95;;;5.10;99.90;;;;;;6332212;22;20021;-69
2022/01/31 07:01:07;;;;;;;19.98;2.60;;;5.20;99.90;;;;;;6331444;22;20007;-72
2022/01/31 07:03:36;;;;;;;18.10;2.40;;;5.30;99.90;;;;;;6333920;22;20398;-71
2022/01/31 07:06:02;;;;;;;17.05;2.85;;;5.30;99.90;;;;;;6334378;22;20447;-71
2022/01/31 07:08:28;;;;;;;15.80;2.55;;;5.40;99.90;;;;;;6284784;22;20064;-71
2022/01/31 07:10:53;;;;;;;11.68;2.35;;;5.40;99.90;;;;;;6334960;22;20339;-71
2022/01/31 07:13:36;;;;;;;19.45;2.53;;;5.40;99.90;;;;;;6333066;22;20050;-70
2022/01/31 07:16:03;;;;;;;13.88;1.85;;;5.40;99.90;;;;;;6308781;22;20095;-70
2022/01/31 07:18:29;;;;;;;9.90;1.40;;;5.30;99.90;;;;;;6332078;22;20389;-70
2022/01/31 07:20:56;;;;;;;11.18;1.83;;;5.30;99.90;;;;;;6329674;22;20038;-71
2022/01/31 07:23:37;;;;;;;9.23;1.50;;;5.20;99.90;;;;;;6331040;22;20343;-71
2022/01/31 07:26:03;;;;;;;8.80;1.60;;;5.20;99.90;;;;;;6331684;22;20086;-71
2022/01/31 07:28:28;;;;;;;12.55;1.77;;;5.20;99.90;;;;;;6331907;22;20038;-71
2022/01/31 07:30:54;;;;;;;14.77;2.70;;;5.10;99.90;;;;;;6333478;22;20094;-71
2022/01/31 07:33:20;;;;;;;12.75;1.95;;;5.10;99.90;;;;;;6334346;22;20015;-71
2022/01/31 07:35:50;;;;;;;17.30;2.50;;;5.10;99.90;;;;;;6334022;22;20019;-72
2022/01/31 07:38:17;;;;;;;15.43;2.17;;;5.10;99.90;;;;;;6333818;22;20339;-71
2022/01/31 07:40:43;;;;;;;23.30;2.65;;;5.10;99.90;;;;;;6333942;22;20449;-72
2022/01/31 07:43:09;;;;;;;15.23;2.10;;;5.10;99.90;;;;;;6332487;22;20018;-71
2022/01/31 07:45:35;;;;;;;15.70;2.80;;;5.20;99.90;;;;;;6333500;22;20526;-72
2022/01/31 07:48:00;;;;;;;13.20;2.15;;;5.20;99.90;;;;;;6305766;22;20105;-72
2022/01/31 07:50:27;;;;;;;13.05;2.58;;;5.30;99.90;;;;;;6305686;22;20014;-72
2022/01/31 07:52:53;;;;;;;14.68;1.88;;;5.20;99.90;;;;;;6333273;22;20351;-71
2022/01/31 07:55:18;;;;;;;11.63;2.17;;;5.20;99.90;;;;;;6305380;22;20022;-71
2022/01/31 07:57:46;;;;;;;14.57;2.50;;;5.30;99.90;;;;;;6305710;22;20022;-72
2022/01/31 08:00:13;;;;;;;14.38;2.05;;;5.30;99.90;;;;;;6308552;22;20475;-71
2022/01/31 08:02:40;;;;;;;21.67;2.63;;;5.40;99.90;;;;;;6308450;22;20512;-71
2022/01/31 08:05:07;;;;;;;18.95;2.58;;;5.40;99.90;;;;;;6307480;22;20662;-72
2022/01/31 08:07:34;;;;;;;13.55;2.78;;;5.40;99.90;;;;;;6305393;22;20366;-72
2022/01/31 08:10:01;;;;;;;18.27;2.42;;;5.40;99.90;;;;;;6306000;22;20518;-72
2022/01/31 08:12:28;;;;;;;15.82;4.35;;;5.50;99.90;;;;;;6306036;22;20342;-72
2022/01/31 08:15:01;;;;;;;15.90;3.00;;;5.60;99.90;;;;;;6305928;22;20051;-72
2022/01/31 08:17:26;;;;;;;10.52;3.42;;;5.60;99.90;;;;;;6305266;22;20040;-72
2022/01/31 08:19:52;;;;;;;16.48;4.40;;;5.70;99.90;;;;;;6305396;22;20077;-72
2022/01/31 08:22:18;;;;;;;11.55;3.92;;;5.80;99.90;;;;;;6280120;22;20015;-72
2022/01/31 08:24:44;;;;;;;14.65;3.78;;;5.80;99.90;;;;;;6308590;22;20022;-71
2022/01/31 08:27:09;;;;;;;17.02;4.93;;;5.80;99.90;;;;;;6307729;22;20503;-72
2022/01/31 08:29:37;;;;;;;16.63;6.18;;;5.90;99.90;;;;;;6307962;22;20064;-72
2022/01/31 08:32:08;;;;;;;23.25;10.77;;;5.90;99.90;;;;;;6307934;22;20661;-70
2022/01/31 08:37:19;;;;;;;30.67;18.63;;;5.90;99.90;;;;;;6307936;22;20042;-71
2022/01/31 08:39:45;;;;;;;30.85;14.93;;;6.00;99.90;;;;;;6335593;22;20011;-71
2022/01/31 08:42:10;;;;;;;22.48;8.43;;;6.00;99.90;;;;;;6307639;22;20025;-71
2022/01/31 08:44:36;;;;;;;22.83;5.22;;;6.00;99.90;;;;;;6308023;22;20023;-71
2022/01/31 08:47:03;;;;;;;27.13;3.78;;;6.10;99.90;;;;;;6306875;22;20025;-71
2022/01/31 08:49:30;;;;;;;30.48;9.65;;;6.10;99.90;;;;;;6307813;22;20417;-71
2022/01/31 08:51:55;;;;;;;25.15;4.80;;;6.20;99.90;;;;;;6308357;22;20388;-71
2022/01/31 08:54:21;;;;;;;23.80;3.97;;;6.10;99.90;;;;;;6308470;22;20026;-71
2022/01/31 08:56:48;;;;;;;29.60;12.68;;;6.20;99.90;;;;;;6307881;22;20022;-72
2022/01/31 08:59:18;;;;;;;29.33;7.22;;;6.30;99.90;;;;;;6308656;22;20473;-71
2022/01/31 09:01:54;;;;;;;23.77;4.72;;;6.30;99.90;;;;;;6308043;22;20409;-71
2022/01/31 09:04:35;;;;;;;19.45;4.93;;;6.30;99.90;;;;;;6307042;22;20674;-71
2022/01/31 09:07:04;;;;;;;23.27;5.63;;;6.40;99.90;;;;;;6334212;22;20503;-71
2022/01/31 09:09:30;;;;;;;25.00;5.47;;;6.30;99.90;;;;;;6307767;22;20395;-72
2022/01/31 09:11:58;;;;;;;49.35;30.20;;;6.30;99.90;;;;;;6307848;22;20461;-71
2022/01/31 09:14:25;;;;;;;18.73;5.03;;;6.40;99.90;;;;;;6307226;22;20089;-72
2022/01/31 09:16:50;;;;;;;18.58;3.80;;;6.40;99.90;;;;;;6334887;22;20350;-72
2022/01/31 09:19:16;;;;;;;28.83;11.13;;;6.40;99.90;;;;;;6281378;22;20038;-72
2022/01/31 09:21:42;;;;;;;21.75;6.28;;;6.40;99.90;;;;;;6281217;22;20014;-71
2022/01/31 09:24:07;;;;;;;17.10;3.30;;;6.40;99.90;;;;;;6307417;22;20022;-71
2022/01/31 09:26:34;;;;;;;17.55;2.78;;;6.50;99.90;;;;;;6307570;22;20142;-71
2022/01/31 09:29:00;;;;;;;20.30;11.70;;;6.60;99.90;;;;;;6334500;22;20320;-72
2022/01/31 09:31:26;;;;;;;15.15;3.20;;;6.50;99.90;;;;;;6307272;22;20010;-71
2022/01/31 09:33:52;;;;;;;18.25;4.00;;;6.60;99.90;;;;;;6280606;22;20014;-72
2022/01/31 09:36:17;;;;;;;13.02;2.33;;;6.60;99.90;;;;;;6307114;22;20018;-72
2022/01/31 09:38:43;;;;;;;16.83;3.60;;;6.60;99.90;;;;;;6307441;22;20021;-72
2022/01/31 09:41:13;;;;;;;14.63;2.45;;;6.70;99.90;;;;;;6306933;22;20025;-73
2022/01/31 09:46:33;;;;;;;15.05;3.80;;;6.70;99.90;;;;;;6328406;22;20351;-71
2022/01/31 09:48:59;;;;;;;15.95;2.90;;;6.70;99.90;;;;;;6336044;22;20129;-72
2022/01/31 09:51:26;;;;;;;16.33;4.25;;;6.80;99.90;;;;;;6334718;22;20494;-72
2022/01/31 09:53:58;;;;;;;19.48;4.78;;;6.80;99.90;;;;;;6336034;22;20007;-72
2022/01/31 09:56:27;;;;;;;23.73;11.15;;;6.80;99.90;;;;;;6309453;22;20007;-73
2022/01/31 09:58:55;;;;;;;12.95;2.20;;;6.70;99.90;;;;;;6334538;22;20037;-72
2022/01/31 10:01:30;;;;;;;11.40;3.90;;;6.70;99.90;;;;;;6335529;22;20022;-73
2022/01/31 10:04:09;;;;;;;15.88;2.53;;;6.80;99.90;;;;;;6309759;22;20014;-72
2022/01/31 10:06:39;;;;;;;26.38;13.45;;;6.80;99.90;;;;;;6335888;22;20011;-72
2022/01/31 10:09:07;;;;;;;18.38;7.25;;;6.80;99.90;;;;;;6335810;22;20019;-72
2022/01/31 10:11:50;;;;;;;16.15;4.53;;;6.80;99.90;;;;;;6334974;22;20014;-72
2022/01/31 10:17:30;;;;;;;13.85;2.25;;;6.90;99.90;;;;;;6334418;22;20082;-71
2022/01/31 10:20:06;;;;;;;16.48;3.53;;;6.90;99.90;;;;;;6281030;22;20018;-71
2022/01/31 10:22:34;;;;;;;10.95;2.53;;;7.00;99.90;;;;;;6309341;22;20360;-72
2022/01/31 10:25:06;;;;;;;14.10;3.83;;;7.10;99.90;;;;;;6332083;22;20018;-72
2022/01/31 10:27:34;;;;;;;11.10;2.30;;;7.10;99.90;;;;;;6333516;22;20381;-72
2022/01/31 10:30:13;;;;;;;67.40;31.92;;;7.10;99.90;;;;;;6334674;22;20015;-72
2022/01/31 10:32:42;;;;;;;29.83;11.43;;;7.20;99.90;;;;;;6333552;22;20525;-72
2022/01/31 10:35:13;;;;;;;135.95;67.00;;;7.20;99.90;;;;;;6308700;22;20115;-71
2022/01/31 10:37:42;;;;;;;140.88;69.03;;;7.20;99.90;;;;;;6333694;22;20037;-72
2022/01/31 10:43:37;;;;;;;92.22;42.75;;;7.40;99.90;;;;;;6332884;22;20015;-73
2022/01/31 10:54:16;;;;;;;12.68;5.03;;;7.80;99.90;;;;;;6332678;22;20006;-71
2022/01/31 10:56:47;;;;;;;;;;;7.80;99.90;;;;;;6333875;22;20110;-72
2022/01/31 10:59:16;;;;;;;11.75;2.50;;;7.80;99.90;;;;;;6333019;22;19918;-73
2022/01/31 11:01:43;;;;;;;10.57;2.30;;;7.80;99.90;;;;;;6333501;22;20045;-73
2022/01/31 11:04:11;;;;;;;10.82;3.10;;;7.70;99.90;;;;;;6332842;22;20014;-71
2022/01/31 11:06:45;;;;;;;15.02;2.35;;;7.70;99.90;;;;;;6307281;22;20019;-71
2022/01/31 11:09:18;;;;;;;15.05;2.17;;;7.70;99.90;;;;;;6331570;22;20034;-71
2022/01/31 11:11:46;;;;;;;13.20;3.00;;;7.70;99.90;;;;;;6331811;22;20083;-72
2022/01/31 11:14:13;;;;;;;19.38;2.38;;;7.80;99.90;;;;;;6332628;22;20094;-72
2022/01/31 11:16:42;;;;;;;15.57;3.95;;;7.90;99.90;;;;;;6333123;22;20029;-72
2022/01/31 11:19:10;;;;;;;18.30;6.22;;;8.00;99.90;;;;;;6334522;22;20006;-71
2022/01/31 11:21:44;;;;;;;12.93;2.53;;;8.00;99.90;;;;;;6282392;22;20007;-71
2022/01/31 11:24:18;;;;;;;11.23;2.75;;;7.90;99.90;;;;;;6335159;22;20029;-72
2022/01/31 11:26:48;;;;;;;15.48;2.80;;;8.00;99.90;;;;;;6331890;22;20014;-71
2022/01/31 11:29:15;;;;;;;14.98;3.00;;;8.10;99.90;;;;;;6333354;22;20014;-72
2022/01/31 11:31:43;;;;;;;18.92;2.28;;;8.30;99.90;;;;;;6333101;22;20033;-71
2022/01/31 11:34:09;;;;;;;14.93;2.40;;;8.50;99.90;;;;;;6306975;22;20011;-71
2022/01/31 11:36:36;;;;;;;15.15;2.63;;;8.60;99.90;;;;;;6306956;22;20481;-71
2022/01/31 11:39:10;;;;;;;17.08;2.80;;;8.70;99.90;;;;;;6334037;22;20443;-72
2022/01/31 11:41:45;;;;;;;16.27;2.35;;;8.80;99.90;;;;;;6336047;22;20015;-71
2022/01/31 11:44:15;;;;;;;17.80;2.95;;;9.00;99.90;;;;;;6337240;22;20018;-72
2022/01/31 11:46:41;;;;;;;18.00;3.15;;;9.10;99.90;;;;;;6335946;22;20006;-73
2022/01/31 11:49:10;;;;;;;20.25;2.95;;;9.20;99.90;;;;;;6333863;22;20086;-72
2022/01/31 11:52:02;;;;;;;12.55;2.53;;;9.40;99.90;;;;;;6333034;22;20018;-72
2022/01/31 11:54:27;;;;;;;17.02;2.95;;;9.50;99.90;;;;;;6332331;22;20089;-72
2022/01/31 11:56:53;;;;;;;19.75;2.80;;;9.50;99.90;;;;;;6332116;22;20899;-73
2022/01/31 11:59:24;;;;;;;13.65;2.10;;;9.50;99.90;;;;;;6333804;22;20451;-73
2022/01/31 12:01:57;;;;;;;13.45;2.45;;;9.50;99.90;;;;;;6334595;22;20045;-73
2022/01/31 12:04:23;;;;;;;25.20;2.75;;;9.50;99.90;;;;;;6334958;22;20474;-73
2022/01/31 12:06:49;;;;;;;13.77;2.30;;;9.60;99.90;;;;;;6334444;22;20015;-73
2022/01/31 12:09:17;;;;;;;11.43;2.08;;;9.80;99.90;;;;;;6333613;22;20312;-73
2022/01/31 12:12:07;;;;;;;12.02;2.65;;;9.80;99.90;;;;;;6335094;22;20015;-73
2022/01/31 12:14:51;;;;;;;13.18;2.08;;;9.80;99.90;;;;;;6335482;22;20011;-72
2022/01/31 12:17:59;;;;;;;10.50;1.65;;;9.90;99.90;;;;;;6336447;22;20046;-72
2022/01/31 12:23:36;;;;;;;9.57;1.52;;;9.80;99.90;;;;;;6334122;22;20023;-72
2022/01/31 12:26:23;;;;;;;9.32;1.77;;;9.80;99.90;;;;;;6334568;22;20034;-72
2022/01/31 12:28:55;;;;;;;12.40;2.33;;;9.70;99.90;;;;;;6335967;22;20018;-73
2022/01/31 12:31:41;;;;;;;10.03;1.93;;;9.80;99.90;;;;;;6308079;22;20091;-77
2022/01/31 12:34:22;;;;;;;8.65;1.90;;;9.90;99.90;;;;;;6335894;22;20241;-76
2022/01/31 12:37:14;;;;;;;13.40;1.90;;;9.90;99.90;;;;;;6342611;22;20015;-77
2022/01/31 12:40:28;;;;;;;11.38;2.28;;;9.80;99.90;;;;;;6353164;22;20014;-76
2022/01/31 12:44:09;;;;;;;11.48;1.60;;;9.60;99.90;;;;;;6299361;22;20446;-77
2022/01/31 12:46:20;;;;;;;15.00;2.38;;;9.50;99.90;;;;;;6364629;22;20096;-77
2022/01/31 12:49:10;;;;;;;12.32;1.83;;;9.30;99.90;;;;;;6285269;22;20048;-80
2022/01/31 12:52:04;;;;;;;7.00;1.63;;;9.20;99.90;;;;;;6283482;22;20013;-80
2022/01/31 12:54:30;;;;;;;11.07;2.25;;;9.10;99.90;;;;;;6283664;22;20007;-80
2022/01/31 12:57:06;;;;;;;16.38;4.60;;;9.00;99.90;;;;;;6309617;22;20006;-80
2022/01/31 12:59:33;;;;;;;24.75;10.18;;;8.90;99.90;;;;;;6308477;22;20059;-74
2022/01/31 13:02:04;;;;;;;13.38;3.05;;;9.00;99.90;;;;;;6308065;22;20045;-74
2022/01/31 13:04:30;;;;;;;15.27;7.10;;;8.90;99.90;;;;;;6310632;22;20067;-79
2022/01/31 13:07:15;;;;;;;14.23;4.40;;;8.90;99.90;;;;;;6267835;22;20045;-74
2022/01/31 13:09:43;;;;;;;11.48;1.85;;;8.90;99.90;;;;;;6290409;22;20007;-74
2022/01/31 13:12:40;;;;;;;13.23;2.20;;;8.90;99.90;;;;;;6267973;22;20011;-76
2022/01/31 13:16:22;;;;;;;21.10;5.70;;;8.90;99.90;;;;;;6312532;22;20092;-76
2022/01/31 13:19:33;;;;;;;14.98;3.10;;;8.90;99.90;;;;;;6254617;22;20119;-76
2022/01/31 13:22:06;;;;;;;11.82;3.03;;;8.80;99.90;;;;;;6311457;22;20014;-73